createdAt,value
2019-02-04T00:01:17.822Z,80.44
2019-02-04T00:03:44.373Z,80.70
2019-02-04T00:06:12.110Z,80.40
2019-02-04T00:08:38.822Z,80.04
2019-02-04T00:11:05.523Z,80.44
2019-02-04T00:13:32.207Z,80.21
2019-02-04T00:15:58.860Z,80.27
2019-02-04T00:18:25.413Z,79.92
2019-02-04T00:20:52.170Z,80.54
2019-02-04T00:23:20.469Z,79.97
2019-02-04T00:25:47.099Z,80.32
2019-02-04T00:28:13.709Z,80.31
2019-02-04T00:30:40.390Z,80.27
2019-02-04T00:33:08.302Z,80.17
2019-02-04T00:35:34.958Z,80.36
2019-02-04T00:38:01.524Z,80.27
2019-02-04T00:40:28.726Z,80.54
2019-02-04T00:42:55.409Z,80.29
2019-02-04T00:45:21.979Z,79.68
2019-02-04T00:47:48.864Z,79.73
2019-02-04T00:50:18.828Z,80.18
2019-02-04T00:52:45.528Z,80.48
2019-02-04T00:55:12.677Z,80.07
2019-02-04T00:57:39.851Z,80.35
2019-02-04T01:00:12.749Z,79.97
2019-02-04T01:02:39.568Z,80.25
2019-02-04T01:05:07.007Z,79.95
2019-02-04T01:07:34.777Z,79.75
2019-02-04T01:10:01.378Z,79.72
2019-02-04T01:12:28.043Z,80.61
2019-02-04T01:14:54.932Z,79.62
2019-02-04T01:17:21.499Z,79.78
2019-02-04T01:19:48.150Z,80.82
2019-02-04T01:22:14.792Z,80.20
2019-02-04T01:24:41.553Z,79.83
2019-02-04T01:27:08.347Z,79.76
2019-02-04T01:29:34.936Z,79.31
2019-02-04T01:32:02.085Z,79.72
2019-02-04T01:34:28.699Z,78.98
2019-02-04T01:36:55.261Z,79.25
2019-02-04T01:39:21.857Z,79.79
2019-02-04T01:41:48.434Z,79.50
2019-02-04T01:44:16.670Z,80.47
2019-02-04T01:46:43.275Z,79.76
2019-02-04T01:49:10.377Z,80.09
2019-02-04T01:51:37.027Z,79.67
2019-02-04T01:54:03.602Z,80.02
2019-02-04T01:56:30.191Z,79.82
2019-02-04T01:58:56.759Z,80.31
2019-02-04T02:01:23.378Z,79.94
2019-02-04T02:03:49.973Z,80.23
2019-02-04T02:06:16.533Z,79.95
2019-02-04T02:08:43.250Z,80.08
2019-02-04T02:11:09.974Z,78.99
2019-02-04T02:13:36.608Z,80.00
2019-02-04T02:16:03.271Z,79.93
2019-02-04T02:18:29.995Z,79.54
2019-02-04T02:20:56.563Z,79.22
2019-02-04T02:23:23.129Z,79.43
2019-02-04T02:25:49.704Z,79.74
2019-02-04T02:28:16.267Z,79.18
2019-02-04T02:30:42.861Z,79.50
2019-02-04T02:33:10.917Z,79.85
2019-02-04T02:35:37.783Z,79.61
2019-02-04T02:38:05.605Z,78.44
2019-02-04T02:40:32.492Z,78.56
2019-02-04T02:43:00.061Z,78.56
2019-02-04T02:45:27.295Z,78.27
2019-02-04T02:47:53.983Z,78.50
2019-02-04T02:50:20.545Z,78.34
2019-02-04T02:52:47.211Z,78.75
2019-02-04T02:55:17.007Z,78.58
2019-02-04T02:57:43.674Z,78.40
2019-02-04T03:00:15.057Z,78.52
2019-02-04T03:02:41.800Z,78.19
2019-02-04T03:05:13.785Z,78.91
2019-02-04T03:07:41.558Z,78.87
2019-02-04T03:10:12.552Z,78.66
2019-02-04T03:12:39.334Z,78.26
2019-02-04T03:15:09.709Z,78.94
2019-02-04T03:17:36.459Z,79.28
2019-02-04T03:20:06.833Z,79.37
2019-02-04T03:22:33.765Z,79.17
2019-02-04T03:25:00.721Z,79.05
2019-02-04T03:27:27.318Z,79.22
2019-02-04T03:29:54.457Z,78.69
2019-02-04T03:32:21.045Z,79.18
2019-02-04T03:34:47.622Z,78.62
2019-02-04T03:37:14.251Z,80.18
2019-02-04T03:39:40.808Z,79.37
2019-02-04T03:42:08.739Z,78.83
2019-02-04T03:44:35.473Z,79.20
2019-02-04T03:47:02.140Z,79.86
2019-02-04T03:49:28.767Z,79.98
2019-02-04T03:51:55.347Z,79.86
2019-02-04T03:54:21.893Z,79.73
2019-02-04T03:56:48.549Z,79.97
2019-02-04T03:59:15.201Z,79.31
2019-02-04T04:01:41.813Z,78.96
2019-02-04T04:04:08.366Z,79.33
2019-02-04T04:06:35.222Z,79.89
2019-02-04T04:09:02.039Z,79.47
2019-02-04T04:11:29.932Z,79.55
2019-02-04T04:13:56.490Z,79.71
2019-02-04T04:16:23.086Z,79.46
2019-02-04T04:18:49.638Z,79.86
2019-02-04T04:21:16.327Z,79.61
2019-02-04T04:23:43.372Z,79.58
2019-02-04T04:26:09.965Z,79.17
2019-02-04T04:28:36.522Z,79.83
2019-02-04T04:31:03.155Z,79.08
2019-02-04T04:33:29.796Z,79.40
2019-02-04T04:35:56.423Z,79.36
2019-02-04T04:38:23.051Z,79.53
2019-02-04T04:40:49.636Z,79.69
2019-02-04T04:43:16.362Z,80.29
2019-02-04T04:45:42.928Z,79.49
2019-02-04T04:48:09.544Z,78.85
2019-02-04T04:50:36.133Z,79.12
2019-02-04T04:53:02.696Z,79.86
2019-02-04T04:55:29.260Z,79.66
2019-02-04T04:57:55.840Z,79.74
2019-02-04T05:00:26.610Z,79.56
2019-02-04T05:02:53.394Z,80.13
2019-02-04T05:05:20.137Z,80.29
2019-02-04T05:07:46.693Z,80.30
2019-02-04T05:10:17.076Z,79.87
2019-02-04T05:12:43.697Z,79.80
2019-02-04T05:15:14.985Z,79.66
2019-02-04T05:17:41.661Z,79.89
2019-02-04T05:20:12.941Z,80.09
2019-02-04T05:22:39.724Z,80.12
2019-02-04T05:25:07.462Z,79.78
2019-02-04T05:27:34.110Z,80.09
2019-02-04T05:30:00.692Z,79.61
2019-02-04T05:32:27.711Z,79.92
2019-02-04T05:34:57.158Z,79.95
2019-02-04T05:37:22.876Z,79.71
2019-02-04T05:39:49.466Z,79.98
2019-02-04T05:42:16.073Z,80.11
2019-02-04T05:44:42.830Z,79.92
2019-02-04T05:47:09.381Z,80.27
2019-02-04T05:49:36.450Z,80.70
2019-02-04T05:52:03.023Z,80.29
2019-02-04T05:54:29.621Z,80.68
2019-02-04T05:56:56.434Z,80.08
2019-02-04T05:59:23.067Z,80.10
2019-02-04T06:01:49.635Z,79.92
2019-02-04T06:04:16.231Z,80.26
2019-02-04T06:06:42.787Z,80.68
2019-02-04T06:09:09.579Z,80.91
2019-02-04T06:11:36.171Z,80.16
2019-02-04T06:14:03.164Z,79.91
2019-02-04T06:16:29.787Z,80.00
2019-02-04T06:19:00.965Z,79.51
2019-02-04T06:21:24.945Z,79.43
2019-02-04T06:23:51.653Z,80.12
2019-02-04T06:26:18.812Z,79.75
2019-02-04T06:28:45.524Z,80.30
2019-02-04T06:31:12.117Z,80.33
2019-02-04T06:33:38.768Z,79.84
2019-02-04T06:36:05.448Z,80.19
2019-02-04T06:38:32.053Z,80.07
2019-02-04T06:40:58.701Z,79.62
2019-02-04T06:43:25.697Z,80.38
2019-02-04T06:45:52.312Z,80.19
2019-02-04T06:48:18.957Z,79.42
2019-02-04T06:50:46.747Z,79.50
2019-02-04T06:53:13.281Z,79.28
2019-02-04T06:55:40.030Z,79.70
2019-02-04T06:58:07.871Z,79.64
2019-02-04T07:00:34.471Z,79.79
2019-02-04T07:03:01.760Z,79.56
2019-02-04T07:05:28.510Z,80.15
2019-02-04T07:07:55.175Z,79.85
2019-02-04T07:10:25.197Z,80.21
2019-02-04T07:12:52.654Z,79.73
2019-02-04T07:15:19.322Z,79.37
2019-02-04T07:17:46.304Z,79.79
2019-02-04T07:20:17.225Z,79.17
2019-02-04T07:22:44.054Z,79.46
2019-02-04T07:25:13.433Z,79.26
2019-02-04T07:27:40.307Z,79.29
2019-02-04T07:30:12.639Z,79.72
2019-02-04T07:32:39.410Z,79.96
2019-02-04T07:35:10.269Z,79.83
2019-02-04T07:37:37.025Z,79.19
2019-02-04T07:40:09.324Z,79.44
2019-02-04T07:42:36.072Z,79.51
2019-02-04T07:45:06.831Z,79.42
2019-02-04T07:47:33.360Z,79.65
2019-02-04T07:50:01.010Z,79.21
2019-02-04T07:52:27.723Z,79.46
2019-02-04T07:54:54.561Z,79.61
2019-02-04T07:57:21.335Z,79.15
2019-02-04T07:59:47.967Z,79.20
2019-02-04T08:02:15.694Z,79.17
2019-02-04T08:04:42.256Z,79.10
2019-02-04T08:07:08.823Z,79.26
2019-02-04T08:09:35.829Z,78.98
2019-02-04T08:12:02.385Z,78.61
2019-02-04T08:14:28.979Z,79.32
2019-02-04T08:16:55.564Z,79.06
2019-02-04T08:19:22.132Z,78.39
2019-02-04T08:21:48.719Z,79.12
2019-02-04T08:24:15.437Z,79.21
2019-02-04T08:26:42.120Z,79.09
2019-02-04T08:29:08.695Z,78.94
2019-02-04T08:31:35.272Z,78.35
2019-02-04T08:34:01.853Z,77.93
2019-02-04T08:36:30.882Z,78.63
2019-02-04T08:38:57.610Z,78.54
2019-02-04T08:41:24.301Z,77.24
2019-02-04T08:43:50.932Z,78.38
2019-02-04T08:46:17.831Z,76.96
2019-02-04T08:48:44.708Z,78.12
2019-02-04T08:51:11.721Z,78.22
2019-02-04T08:53:38.975Z,77.45
2019-02-04T08:56:05.949Z,77.42
2019-02-04T08:58:32.879Z,77.01
2019-02-04T09:00:59.843Z,76.71
2019-02-04T09:03:27.772Z,77.20
2019-02-04T09:05:54.823Z,76.54
2019-02-04T09:08:21.382Z,76.31
2019-02-04T09:10:48.639Z,77.63
2019-02-04T09:13:15.204Z,76.40
2019-02-04T09:15:41.832Z,76.58
2019-02-04T09:18:08.531Z,76.32
2019-02-04T09:20:35.208Z,76.12
2019-02-04T09:23:01.928Z,77.47
2019-02-04T09:25:28.961Z,76.88
2019-02-04T09:27:56.991Z,77.91
2019-02-04T09:30:25.810Z,77.49
2019-02-04T09:32:53.315Z,77.26
2019-02-04T09:35:21.175Z,77.75
2019-02-04T09:37:50.920Z,77.96
2019-02-04T09:40:23.510Z,77.21
2019-02-04T09:42:50.171Z,76.53
2019-02-04T09:45:16.912Z,77.06
2019-02-04T09:47:43.596Z,77.14
2019-02-04T09:50:21.716Z,77.21
2019-02-04T09:52:44.556Z,77.15
2019-02-04T09:55:16.051Z,77.38
2019-02-04T09:57:42.882Z,76.42
2019-02-04T10:03:16.030Z,77.08
2019-02-04T10:05:43.161Z,76.67
2019-02-04T10:08:09.727Z,77.06
2019-02-04T10:10:36.282Z,77.26
2019-02-04T10:13:04.488Z,77.36
2019-02-04T10:15:35.641Z,77.08
2019-02-04T10:18:03.856Z,76.58
2019-02-04T10:20:34.334Z,76.39
2019-02-04T10:22:59.218Z,75.40
2019-02-04T10:25:30.078Z,75.38
2019-02-04T10:27:56.766Z,75.70
2019-02-04T10:30:23.642Z,76.01
2019-02-04T10:32:50.333Z,76.13
2019-02-04T10:35:18.149Z,75.70
2019-02-04T10:37:47.102Z,75.79
2019-02-04T10:40:18.882Z,75.01
2019-02-04T10:42:45.661Z,75.69
2019-02-04T10:45:15.332Z,76.15
2019-02-04T10:47:42.183Z,75.46
2019-02-04T10:50:14.467Z,74.80
2019-02-04T10:52:41.568Z,75.05
2019-02-04T10:55:09.000Z,74.89
2019-02-04T10:57:40.620Z,74.82
2019-02-04T11:00:10.070Z,75.13
2019-02-04T11:02:36.760Z,74.50
2019-02-04T11:05:08.394Z,75.94
2019-02-04T11:07:35.404Z,76.79
2019-02-04T11:10:07.132Z,76.57
2019-02-04T11:12:33.803Z,75.04
2019-02-04T11:15:00.539Z,75.54
2019-02-04T11:17:27.138Z,75.20
2019-02-04T11:19:53.842Z,75.13
2019-02-04T11:22:20.547Z,74.56
2019-02-04T11:24:47.439Z,74.39
2019-02-04T11:27:16.952Z,75.21
2019-02-04T11:29:44.698Z,75.47
2019-02-04T11:32:11.373Z,75.45
2019-02-04T11:34:38.034Z,76.28
2019-02-04T11:37:04.808Z,75.17
2019-02-04T11:39:31.494Z,76.33
2019-02-04T11:41:58.607Z,75.97
2019-02-04T11:44:25.242Z,74.45
2019-02-04T11:46:52.869Z,74.85
2019-02-04T11:49:19.524Z,75.60
2019-02-04T11:51:48.676Z,75.37
2019-02-04T11:54:15.380Z,75.46
2019-02-04T11:56:41.991Z,73.54
2019-02-04T11:59:08.573Z,74.25
2019-02-04T12:01:35.189Z,73.75
2019-02-04T12:04:01.892Z,74.06
2019-02-04T12:06:28.643Z,73.36
2019-02-04T12:08:55.256Z,74.47
2019-02-04T12:11:21.800Z,74.63
2019-02-04T12:13:48.391Z,75.95
2019-02-04T12:16:15.000Z,74.95
2019-02-04T12:18:42.306Z,76.10
2019-02-04T12:21:20.710Z,75.96
2019-02-04T12:23:37.472Z,76.01
2019-02-04T12:26:04.116Z,75.02
2019-02-04T12:28:30.778Z,76.04
2019-02-04T12:30:57.474Z,75.44
2019-02-04T12:33:24.973Z,75.91
2019-02-04T12:35:51.568Z,75.99
2019-02-04T12:38:18.139Z,76.17
2019-02-04T12:40:44.726Z,75.68
2019-02-04T12:43:11.399Z,75.55
2019-02-04T12:45:41.197Z,75.42
2019-02-04T12:48:09.164Z,75.12
2019-02-04T12:50:35.997Z,74.97
2019-02-04T12:53:03.759Z,75.20
2019-02-04T12:55:31.903Z,75.09
2019-02-04T12:57:58.558Z,75.88
2019-02-04T13:00:28.725Z,75.21
2019-02-04T13:02:55.405Z,76.20
2019-02-04T13:05:27.740Z,75.68
2019-02-04T13:07:54.269Z,76.17
2019-02-04T13:10:21.327Z,75.35
2019-02-04T13:12:47.908Z,75.76
2019-02-04T13:15:18.589Z,75.90
2019-02-04T13:17:45.186Z,75.94
2019-02-04T13:20:15.670Z,74.84
2019-02-04T13:22:48.962Z,75.34
2019-02-04T13:25:23.986Z,75.34
2019-02-04T13:27:50.573Z,75.69
2019-02-04T13:30:21.393Z,75.33
2019-02-04T13:32:48.003Z,76.17
2019-02-04T13:35:15.736Z,75.37
2019-02-04T13:37:42.306Z,75.28
2019-02-04T13:40:14.346Z,74.84
2019-02-04T13:42:41.169Z,75.80
2019-02-04T13:45:13.153Z,75.47
2019-02-04T13:47:39.795Z,74.82
2019-02-04T13:50:08.803Z,74.76
2019-02-04T13:52:35.419Z,74.40
2019-02-04T13:55:09.046Z,74.96
2019-02-04T13:57:36.664Z,74.63
2019-02-04T14:00:09.008Z,75.07
2019-02-04T14:02:38.255Z,74.83
2019-02-04T14:05:06.779Z,74.75
2019-02-04T14:07:34.584Z,74.11
2019-02-04T14:10:01.422Z,74.35
2019-02-04T14:12:28.184Z,75.19
2019-02-04T14:14:54.905Z,74.81
2019-02-04T14:17:24.294Z,74.57
2019-02-04T14:19:50.177Z,79.20
2019-02-04T14:22:17.178Z,75.80
2019-02-04T14:24:44.189Z,72.75
2019-02-04T14:27:10.723Z,75.00
2019-02-04T14:29:37.339Z,74.55
2019-02-04T14:32:03.992Z,75.77
2019-02-04T14:34:30.686Z,76.00
2019-02-04T14:36:57.339Z,75.07
2019-02-04T14:39:23.985Z,75.09
2019-02-04T14:41:50.537Z,74.86
2019-02-04T14:44:19.919Z,75.43
2019-02-04T14:46:52.636Z,76.67
2019-02-04T14:49:25.030Z,76.41
2019-02-04T14:51:57.493Z,76.08
2019-02-04T14:54:37.593Z,76.63
2019-02-04T14:57:04.128Z,76.44
2019-02-04T14:59:32.011Z,76.57
2019-02-04T15:02:04.344Z,77.51
2019-02-04T15:04:36.745Z,77.08
2019-02-04T15:07:05.732Z,77.30
2019-02-04T15:10:48.976Z,76.89
2019-02-04T15:13:21.390Z,75.34
2019-02-04T15:15:53.847Z,76.03
2019-02-04T15:18:24.243Z,76.52
2019-02-04T15:20:56.696Z,77.26
2019-02-04T15:23:28.999Z,77.80
2019-02-04T15:26:01.433Z,78.14
2019-02-04T15:28:33.739Z,78.24
2019-02-04T15:31:07.055Z,78.63
2019-02-04T15:33:39.398Z,77.83
2019-02-04T15:36:12.000Z,77.05
2019-02-04T15:38:47.325Z,76.45
2019-02-04T15:41:20.179Z,77.66
2019-02-04T15:43:52.483Z,78.57
2019-02-04T15:46:24.924Z,78.44
2019-02-04T15:48:57.353Z,78.24
2019-02-04T15:51:30.098Z,78.25
2019-02-04T15:53:58.133Z,78.46
2019-02-04T15:56:25.345Z,78.48
2019-02-04T15:58:51.959Z,77.75
2019-02-04T16:01:18.568Z,77.20
2019-02-04T16:03:45.264Z,78.19
2019-02-04T16:06:11.903Z,76.76
2019-02-04T16:08:38.652Z,76.50
2019-02-04T16:11:05.752Z,77.23
2019-02-04T16:13:32.371Z,77.93
2019-02-04T16:15:58.951Z,79.09
2019-02-04T16:18:25.682Z,79.07
2019-02-04T16:20:52.361Z,78.93
2019-02-04T16:23:18.951Z,78.46
2019-02-04T16:25:45.542Z,76.61
2019-02-04T16:28:14.924Z,77.21
2019-02-04T16:30:41.478Z,78.12
2019-02-04T16:33:08.024Z,79.39
2019-02-04T16:35:34.606Z,80.28
2019-02-04T16:38:01.425Z,80.60
2019-02-04T16:40:28.166Z,81.33
2019-02-04T16:42:54.846Z,81.39
2019-02-04T16:45:23.016Z,81.04
2019-02-04T16:47:49.977Z,79.15
2019-02-04T16:50:20.865Z,79.12
2019-02-04T16:52:48.252Z,79.35
2019-02-04T16:55:15.290Z,80.24
2019-02-04T16:57:42.021Z,80.97
2019-02-04T17:00:48.086Z,80.10
2019-02-04T17:03:14.673Z,80.54
2019-02-04T17:05:41.530Z,80.56
2019-02-04T17:08:08.289Z,81.25
2019-02-04T17:10:34.874Z,80.79
2019-02-04T17:13:01.553Z,81.12
2019-02-04T17:15:28.216Z,81.48
2019-02-04T17:17:54.909Z,81.23
2019-02-04T17:20:26.007Z,81.22
2019-02-04T17:22:53.684Z,81.44
2019-02-04T17:25:20.291Z,80.91
2019-02-04T17:27:46.979Z,79.99
2019-02-04T17:30:18.221Z,79.40
2019-02-04T17:32:44.896Z,79.79
2019-02-04T17:35:11.792Z,80.54
2019-02-04T17:37:38.667Z,81.43
2019-02-04T17:40:10.971Z,81.12
2019-02-04T17:42:37.554Z,80.14
2019-02-04T17:45:09.819Z,79.77
2019-02-04T17:47:37.110Z,79.62
2019-02-04T17:50:09.320Z,80.66
2019-02-04T17:52:35.908Z,81.00
2019-02-04T17:55:07.795Z,81.08
2019-02-04T17:57:34.367Z,81.45
2019-02-04T18:00:57.284Z,81.47
2019-02-04T18:03:23.821Z,80.97
2019-02-04T18:05:51.775Z,80.85
2019-02-04T18:08:18.457Z,81.31
2019-02-04T18:10:45.009Z,81.08
2019-02-04T18:13:11.601Z,80.85
2019-02-04T18:15:38.251Z,80.62
2019-02-04T18:18:04.840Z,80.20
2019-02-04T18:20:31.424Z,79.53
2019-02-04T18:22:58.036Z,79.04
2019-02-04T18:25:25.280Z,79.44
2019-02-04T18:27:53.440Z,79.76
2019-02-04T18:30:23.401Z,79.62
2019-02-04T18:32:50.331Z,79.32
2019-02-04T18:35:17.658Z,79.02
2019-02-04T18:37:44.544Z,78.61
2019-02-04T18:40:16.957Z,78.12
2019-02-04T18:42:43.715Z,78.86
2019-02-04T18:45:16.060Z,78.41
2019-02-04T18:47:42.935Z,76.80
2019-02-04T18:50:13.184Z,76.70
2019-02-04T18:52:40.291Z,76.05
2019-02-04T18:55:12.806Z,75.21
2019-02-04T18:57:39.582Z,74.95
2019-02-04T19:00:12.198Z,76.02
2019-02-04T19:02:39.335Z,76.81
2019-02-04T19:05:09.437Z,76.77
2019-02-04T19:07:36.537Z,75.85
2019-02-04T19:10:08.332Z,75.35
2019-02-04T19:12:34.945Z,74.48
2019-02-04T19:15:01.629Z,74.60
2019-02-04T19:17:28.187Z,74.91
2019-02-04T19:19:54.897Z,75.63
2019-02-04T19:22:21.483Z,76.59
2019-02-04T19:24:48.508Z,77.14
2019-02-04T19:27:15.291Z,75.92
2019-02-04T19:29:41.952Z,76.32
2019-02-04T19:32:10.791Z,76.24
2019-02-04T19:34:37.430Z,77.11
2019-02-04T19:37:04.031Z,78.54
2019-02-04T19:39:30.604Z,78.84
2019-02-04T19:41:57.280Z,78.74
2019-02-04T19:44:24.326Z,78.46
2019-02-04T19:46:50.998Z,78.44
2019-02-04T19:49:17.691Z,77.50
2019-02-04T19:51:44.475Z,76.35
2019-02-04T19:54:21.272Z,75.32
2019-02-04T19:56:39.650Z,74.20
2019-02-04T19:59:06.215Z,76.19
2019-02-04T20:01:33.062Z,76.25
2019-02-04T20:03:59.827Z,76.50
2019-02-04T20:06:28.553Z,76.80
2019-02-04T20:08:55.227Z,76.19
2019-02-04T20:11:21.886Z,76.85
2019-02-04T20:13:48.628Z,76.40
2019-02-04T20:16:15.296Z,76.70
2019-02-04T20:18:42.006Z,76.30
2019-02-04T20:21:10.498Z,76.03
2019-02-04T20:23:37.192Z,75.28
2019-02-04T20:26:04.019Z,74.37
2019-02-04T20:28:30.592Z,73.09
2019-02-04T20:30:57.205Z,73.57
2019-02-04T20:33:23.885Z,74.41
2019-02-04T20:35:50.581Z,73.78
2019-02-04T20:38:17.318Z,72.57
2019-02-04T20:40:44.190Z,72.51
2019-02-04T20:43:10.866Z,72.05
2019-02-04T20:45:37.605Z,71.18
2019-02-04T20:48:10.013Z,71.21
2019-02-04T20:50:41.468Z,71.08
2019-02-04T20:53:08.268Z,71.35
2019-02-04T20:55:35.049Z,70.33
2019-02-04T20:58:01.873Z,70.84
2019-02-04T21:00:30.199Z,70.95
2019-02-04T21:02:57.102Z,71.42
2019-02-04T21:05:23.733Z,71.87
2019-02-04T21:07:50.611Z,71.04
2019-02-04T21:10:21.610Z,70.41
2019-02-04T21:12:48.363Z,70.48
2019-02-04T21:15:18.699Z,70.31
2019-02-04T21:17:47.349Z,69.30
2019-02-04T21:20:17.964Z,68.24
2019-02-04T21:22:44.653Z,68.94
2019-02-04T21:25:11.234Z,68.68
2019-02-04T21:27:37.910Z,68.79
2019-02-04T21:30:10.816Z,68.28
2019-02-04T21:32:37.798Z,67.08
2019-02-04T21:35:05.707Z,68.15
2019-02-04T21:37:33.487Z,69.05
2019-02-04T21:40:00.158Z,68.73
2019-02-04T21:42:26.913Z,68.33
2019-02-04T21:44:53.545Z,68.70
2019-02-04T21:47:20.684Z,68.16
2019-02-04T21:49:47.349Z,69.03
2019-02-04T21:52:13.941Z,70.20
2019-02-04T21:54:40.622Z,69.11
2019-02-04T21:57:07.211Z,68.75
2019-02-04T21:59:33.823Z,69.01
2019-02-04T22:02:00.524Z,69.05
2019-02-04T22:04:27.116Z,68.06
2019-02-04T22:06:54.087Z,68.64
2019-02-04T22:09:21.096Z,68.12
2019-02-04T22:11:47.691Z,67.58
2019-02-04T22:14:14.776Z,68.14
2019-02-04T22:16:41.649Z,67.93
2019-02-04T22:19:08.720Z,66.85
2019-02-04T22:21:36.615Z,67.15
2019-02-04T22:24:03.778Z,66.75
2019-02-04T22:26:30.476Z,67.04
2019-02-04T22:28:57.126Z,67.56
2019-02-04T22:31:23.806Z,67.12
2019-02-04T22:33:50.516Z,66.52
2019-02-04T22:36:19.685Z,66.66
2019-02-04T22:38:46.311Z,67.23
2019-02-04T22:41:12.963Z,68.24
2019-02-04T22:43:39.750Z,67.57
2019-02-04T22:46:06.577Z,67.28
2019-02-04T22:48:33.214Z,66.99
2019-02-04T22:50:59.807Z,66.86
2019-02-04T22:53:26.524Z,67.85
2019-02-04T22:55:53.186Z,68.35
2019-02-04T22:58:19.852Z,68.53
2019-02-04T23:00:52.434Z,67.62
2019-02-04T23:03:23.779Z,67.81
2019-02-04T23:05:50.526Z,67.08
2019-02-04T23:08:17.102Z,67.82
2019-02-04T23:10:43.884Z,68.22
2019-02-04T23:13:10.557Z,68.71
2019-02-04T23:15:37.227Z,69.08
2019-02-04T23:18:04.142Z,68.87
2019-02-04T23:20:30.850Z,68.54
2019-02-04T23:22:57.783Z,69.88
2019-02-04T23:25:24.459Z,69.10
2019-02-04T23:27:51.045Z,69.74
2019-02-04T23:30:18.344Z,69.42
2019-02-04T23:32:45.315Z,68.07
2019-02-04T23:35:12.031Z,67.94
2019-02-04T23:37:39.014Z,69.49
2019-02-04T23:40:09.367Z,68.61
2019-02-04T23:42:36.116Z,68.19
2019-02-04T23:45:07.326Z,67.88
2019-02-04T23:47:33.910Z,66.86
2019-02-04T23:50:02.008Z,66.60
2019-02-04T23:52:29.615Z,67.61
2019-02-04T23:54:56.177Z,68.08
2019-02-04T23:57:22.723Z,69.21
2019-02-04T23:59:49.293Z,69.15
